createdAt,value
2019-02-03T00:00:16.179Z,20.73
2019-02-03T00:06:24.331Z,19.00
2019-02-03T00:09:25.738Z,19.90
2019-02-03T00:12:27.612Z,20.10
2019-02-03T00:15:27.661Z,20.00
2019-02-03T00:18:29.151Z,20.10
2019-02-03T00:21:30.263Z,20.60
2019-02-03T00:24:30.462Z,21.60
2019-02-03T00:27:39.212Z,19.97
2019-02-03T00:30:40.713Z,19.50
2019-02-03T00:36:48.735Z,19.67
2019-02-03T00:39:48.725Z,22.43
2019-02-03T00:42:57.426Z,22.70
2019-02-03T00:45:59.598Z,23.10
2019-02-03T00:49:01.722Z,20.00
2019-02-03T00:52:02.605Z,24.80
2019-02-03T00:55:04.096Z,22.00
2019-02-03T00:58:05.433Z,23.87
2019-02-03T01:01:05.586Z,23.10
2019-02-03T01:10:48.917Z,23.90
2019-02-03T01:13:49.750Z,22.63
2019-02-03T01:16:51.028Z,21.33
2019-02-03T01:19:52.124Z,20.70
2019-02-03T01:22:52.092Z,21.83
2019-02-03T01:29:15.464Z,22.10
2019-02-03T01:38:51.919Z,21.53
2019-02-03T01:42:02.243Z,20.83
2019-02-03T01:45:03.215Z,20.83
2019-02-03T01:48:05.251Z,17.70
2019-02-03T01:51:07.125Z,19.10
2019-02-03T01:54:08.214Z,20.70
2019-02-03T01:57:09.912Z,17.67
2019-02-03T02:00:11.670Z,15.97
2019-02-03T02:03:13.294Z,18.87
2019-02-03T02:09:22.138Z,16.53
2019-02-03T02:12:24.059Z,15.13
2019-02-03T02:15:25.143Z,14.87
2019-02-03T02:18:26.028Z,16.43
2019-02-03T02:21:27.407Z,15.93
2019-02-03T02:24:28.744Z,16.03
2019-02-03T02:27:30.504Z,15.03
2019-02-03T02:30:31.492Z,16.57
2019-02-03T02:33:33.004Z,15.77
2019-02-03T02:39:41.359Z,14.03
2019-02-03T02:42:42.775Z,15.83
2019-02-03T02:45:44.968Z,15.50
2019-02-03T02:48:45.180Z,15.70
2019-02-03T02:51:46.566Z,16.20
2019-02-03T02:54:36.479Z,15.40
2019-02-03T02:57:45.331Z,15.87
2019-02-03T03:00:45.503Z,15.70
2019-02-03T03:03:46.435Z,14.23
2019-02-03T03:09:55.302Z,15.53
2019-02-03T03:12:56.327Z,13.90
2019-02-03T03:15:57.936Z,16.13
2019-02-03T03:18:59.004Z,14.07
2019-02-03T03:21:59.964Z,14.53
2019-02-03T03:24:59.827Z,15.13
2019-02-03T03:28:09.404Z,14.47
2019-02-03T03:31:10.400Z,13.40
2019-02-03T03:34:11.634Z,12.90
2019-02-03T03:40:19.766Z,14.47
2019-02-03T03:43:21.222Z,13.57
2019-02-03T03:46:21.185Z,13.93
2019-02-03T03:49:30.198Z,15.40
2019-02-03T03:52:31.547Z,13.57
2019-02-03T03:55:31.639Z,16.10
2019-02-03T03:58:33.431Z,13.93
2019-02-03T04:01:35.150Z,14.30
2019-02-03T04:04:35.931Z,13.23
2019-02-03T04:10:45.101Z,15.10
2019-02-03T04:13:46.442Z,13.47
2019-02-03T04:16:48.834Z,12.27
2019-02-03T04:19:50.264Z,14.40
2019-02-03T04:22:51.896Z,14.43
2019-02-03T04:25:54.847Z,15.33
2019-02-03T04:28:56.594Z,15.20
2019-02-03T04:31:58.519Z,14.77
2019-02-03T04:34:59.908Z,14.53
2019-02-03T04:41:08.136Z,14.60
2019-02-03T04:44:09.983Z,13.60
2019-02-03T04:47:11.842Z,13.97
2019-02-03T04:50:14.114Z,12.03
2019-02-03T04:53:14.047Z,14.40
2019-02-03T04:56:15.676Z,15.97
2019-02-03T04:59:17.077Z,13.10
2019-02-03T05:02:18.408Z,12.83
2019-02-03T05:05:19.896Z,11.87
2019-02-03T05:11:35.206Z,13.73
2019-02-03T05:14:36.106Z,13.57
2019-02-03T05:17:37.495Z,12.97
2019-02-03T05:20:38.335Z,11.70
2019-02-03T05:23:39.906Z,13.10
2019-02-03T05:26:29.963Z,12.37
2019-02-03T05:29:38.861Z,11.40
2019-02-03T05:32:40.009Z,11.73
2019-02-03T05:35:29.562Z,11.80
2019-02-03T05:38:19.019Z,13.13
2019-02-03T05:41:20.035Z,10.33
2019-02-03T05:44:21.025Z,10.90
2019-02-03T05:47:22.581Z,10.50
2019-02-03T05:50:23.983Z,10.00
2019-02-03T05:53:13.657Z,10.90
2019-02-03T05:56:03.144Z,10.03
2019-02-03T05:59:04.871Z,12.10
2019-02-03T06:02:09.920Z,10.20
2019-02-03T06:11:08.254Z,8.70
2019-02-03T06:14:16.958Z,7.80
2019-02-03T06:17:18.371Z,10.10
2019-02-03T06:20:19.916Z,10.63
2019-02-03T06:23:22.391Z,10.73
2019-02-03T06:26:23.445Z,9.73
2019-02-03T06:29:25.099Z,10.00
2019-02-03T06:32:26.218Z,8.57
2019-02-03T06:35:15.949Z,8.60
2019-02-03T06:38:24.591Z,8.17
2019-02-03T06:41:14.499Z,7.80
2019-02-03T06:44:04.183Z,8.10
2019-02-03T06:47:31.751Z,6.70
2019-02-03T06:50:21.528Z,8.27
2019-02-03T06:53:30.355Z,7.83
2019-02-03T06:56:19.847Z,8.60
2019-02-03T06:59:28.442Z,8.50
2019-02-03T07:02:36.950Z,8.57
2019-02-03T07:05:45.690Z,7.07
2019-02-03T07:08:54.359Z,9.20
2019-02-03T07:11:43.836Z,8.07
2019-02-03T07:14:52.439Z,7.77
2019-02-03T07:18:01.015Z,7.50
2019-02-03T07:27:31.254Z,8.60
2019-02-03T07:30:31.086Z,8.40
2019-02-03T07:33:20.518Z,9.27
2019-02-03T07:36:10.050Z,8.50
2019-02-03T07:49:01.498Z,8.70
2019-02-03T07:52:10.266Z,8.77
2019-02-03T07:55:20.518Z,10.83
2019-02-03T07:58:29.239Z,8.80
2019-02-03T08:01:37.932Z,9.03
2019-02-03T08:04:46.591Z,10.10
2019-02-03T08:07:55.110Z,9.97
2019-02-03T08:17:32.398Z,8.90
2019-02-03T08:20:41.050Z,10.37
2019-02-03T08:23:51.436Z,10.50
2019-02-03T08:26:53.290Z,10.80
2019-02-03T08:29:58.710Z,10.53
2019-02-03T08:32:59.716Z,10.80
2019-02-03T08:36:00.982Z,9.10
2019-02-03T08:39:02.638Z,10.27
2019-02-03T08:41:52.493Z,10.17
2019-02-03T08:54:57.061Z,11.33
2019-02-03T09:04:23.155Z,12.57
2019-02-03T09:10:48.439Z,10.43
2019-02-03T09:13:56.159Z,11.37
2019-02-03T09:20:38.131Z,10.80
2019-02-03T09:23:46.710Z,12.60
2019-02-03T09:30:11.143Z,12.03
2019-02-03T09:33:20.199Z,14.27
2019-02-03T09:42:50.887Z,12.90
2019-02-03T09:52:09.839Z,15.10
2019-02-03T09:55:11.187Z,15.27
2019-02-03T09:58:12.827Z,13.97
2019-02-03T10:01:14.327Z,14.97
2019-02-03T10:04:15.307Z,16.33
2019-02-03T10:07:17.176Z,16.60
2019-02-03T10:10:18.805Z,15.60
2019-02-03T10:13:20.220Z,16.30
2019-02-03T10:16:21.479Z,17.50
2019-02-03T10:19:22.291Z,17.10
2019-02-03T10:22:23.752Z,15.40
2019-02-03T10:25:24.627Z,17.13
2019-02-03T10:28:25.614Z,18.50
2019-02-03T10:31:26.455Z,18.70
2019-02-03T10:34:29.533Z,17.97
2019-02-03T10:37:37.322Z,17.33
2019-02-03T10:44:00.016Z,15.90
2019-02-03T10:53:37.590Z,18.27
2019-02-03T10:56:46.294Z,18.20
2019-02-03T10:59:54.830Z,16.47
2019-02-03T11:15:59.463Z,14.17
2019-02-03T11:19:08.206Z,15.37
2019-02-03T11:28:46.273Z,14.90
2019-02-03T11:35:09.099Z,16.70
2019-02-03T11:38:11.252Z,18.43
2019-02-03T11:41:12.751Z,15.43
2019-02-03T11:44:14.071Z,17.53
2019-02-03T11:47:15.959Z,16.40
2019-02-03T11:50:17.670Z,16.00
2019-02-03T11:56:27.159Z,15.07
2019-02-03T11:59:28.669Z,15.17
2019-02-03T12:02:41.427Z,16.47
2019-02-03T12:05:33.296Z,18.77
2019-02-03T12:08:34.655Z,17.27
2019-02-03T12:11:36.380Z,15.47
2019-02-03T12:14:38.494Z,14.97
2019-02-03T12:17:39.644Z,14.57
2019-02-03T12:20:41.599Z,16.10
2019-02-03T12:26:49.423Z,16.33
2019-02-03T12:29:50.719Z,14.67
2019-02-03T12:32:53.107Z,15.30
2019-02-03T12:35:54.510Z,16.13
2019-02-03T12:38:56.137Z,15.50
2019-02-03T12:41:57.234Z,16.27
2019-02-03T12:44:59.758Z,14.03
2019-02-03T12:48:01.822Z,12.40
2019-02-03T12:51:04.007Z,14.27
2019-02-03T12:54:05.183Z,15.17
2019-02-03T12:57:07.424Z,14.50
2019-02-03T13:00:11.002Z,12.93
2019-02-03T13:03:12.501Z,13.13
2019-02-03T13:06:14.101Z,14.13
2019-02-03T13:09:15.872Z,14.17
2019-02-03T13:12:24.945Z,13.27
2019-02-03T13:15:20.111Z,13.17
2019-02-03T13:18:22.339Z,13.90
2019-02-03T13:21:23.885Z,14.50
2019-02-03T13:27:33.211Z,13.03
2019-02-03T13:30:34.343Z,14.50
2019-02-03T13:33:35.923Z,15.50
2019-02-03T13:36:37.078Z,15.10
2019-02-03T13:39:38.913Z,14.43
2019-02-03T13:42:40.302Z,12.70
2019-02-03T13:45:41.468Z,14.17
2019-02-03T13:48:43.350Z,14.80
2019-02-03T13:51:44.672Z,13.07
2019-02-03T13:57:53.037Z,15.23
2019-02-03T14:00:54.835Z,14.43
2019-02-03T14:03:56.255Z,15.93
2019-02-03T14:06:58.026Z,13.40
2019-02-03T14:09:59.911Z,13.40
2019-02-03T14:13:01.462Z,14.70
2019-02-03T14:16:02.920Z,12.73
2019-02-03T14:19:04.635Z,15.77
2019-02-03T14:22:06.428Z,13.60
2019-02-03T14:28:15.107Z,15.17
2019-02-03T14:31:17.210Z,13.90
2019-02-03T14:34:19.598Z,14.73
2019-02-03T14:37:20.906Z,14.53
2019-02-03T14:40:22.905Z,11.63
2019-02-03T14:43:23.280Z,12.27
2019-02-03T14:49:39.486Z,14.07
2019-02-03T14:52:41.167Z,12.70
2019-02-03T14:58:50.717Z,12.10
2019-02-03T15:01:53.371Z,12.60
2019-02-03T15:04:55.242Z,12.00
2019-02-03T15:07:57.822Z,13.90
2019-02-03T15:10:59.802Z,11.23
2019-02-03T15:14:01.707Z,10.60
2019-02-03T15:16:51.662Z,10.50
2019-02-03T15:19:52.862Z,11.90
2019-02-03T15:22:42.326Z,11.03
2019-02-03T15:28:57.481Z,10.73
2019-02-03T15:31:58.588Z,9.87
2019-02-03T15:35:00.091Z,11.27
2019-02-03T15:44:41.408Z,10.03
2019-02-03T15:50:45.409Z,9.03
2019-02-03T16:00:03.743Z,9.37
2019-02-03T16:03:18.714Z,10.50
2019-02-03T16:06:31.361Z,9.37
2019-02-03T16:12:36.207Z,9.10
2019-02-03T16:19:03.245Z,10.10
2019-02-03T16:25:05.442Z,11.53
2019-02-03T16:31:34.579Z,9.77
2019-02-03T16:34:48.315Z,10.70
2019-02-03T16:40:52.966Z,9.03
2019-02-03T16:46:56.496Z,9.90
2019-02-03T16:53:01.448Z,8.80
2019-02-03T16:56:13.699Z,10.17
2019-02-03T17:02:40.732Z,12.03
2019-02-03T17:09:09.436Z,9.37
2019-02-03T17:12:24.398Z,10.10
2019-02-03T17:21:23.838Z,9.57
2019-02-03T17:33:05.911Z,9.58
2019-02-03T17:36:13.080Z,10.55
2019-02-03T17:42:16.684Z,9.63
2019-02-03T17:48:45.250Z,9.97
2019-02-03T17:54:55.134Z,10.57
2019-02-03T18:03:43.837Z,10.18
2019-02-03T18:09:56.887Z,12.45
2019-02-03T18:13:01.898Z,10.10
2019-02-03T18:19:06.165Z,10.03
2019-02-03T18:22:17.459Z,10.75
2019-02-03T18:38:06.241Z,8.93
2019-02-03T18:44:07.443Z,9.17
2019-02-03T18:47:22.194Z,9.45
2019-02-03T18:53:24.450Z,10.10
2019-02-03T18:59:29.163Z,9.90
2019-02-03T19:14:53.607Z,9.73
2019-02-03T19:18:03.690Z,10.07
2019-02-03T19:24:08.798Z,8.40
2019-02-03T19:30:12.266Z,7.50
2019-02-03T19:48:24.855Z,5.73
2019-02-03T19:54:25.875Z,6.87
2019-02-03T20:00:29.871Z,6.90
2019-02-03T20:06:58.506Z,5.27
2019-02-03T20:10:15.308Z,6.33
2019-02-03T20:19:23.374Z,6.60
2019-02-03T20:25:49.153Z,5.03
2019-02-03T20:28:50.512Z,5.83
2019-02-03T20:31:52.314Z,5.47
2019-02-03T20:38:01.929Z,5.53
2019-02-03T20:41:02.312Z,5.97
2019-02-03T20:47:25.259Z,5.50
2019-02-03T20:50:31.730Z,5.10
2019-02-03T20:53:32.946Z,6.93
2019-02-03T20:56:39.178Z,5.33
2019-02-03T20:59:39.116Z,5.50
2019-02-03T21:02:40.672Z,5.97
2019-02-03T21:08:52.255Z,6.30
2019-02-03T21:11:46.302Z,5.60
2019-02-03T21:17:46.555Z,5.90
2019-02-03T21:20:46.939Z,4.80
2019-02-03T21:23:38.568Z,5.93
2019-02-03T21:26:28.571Z,4.60
2019-02-03T21:29:38.282Z,4.83
2019-02-03T21:32:28.647Z,6.70
2019-02-03T21:35:37.410Z,4.60
2019-02-03T21:38:39.420Z,5.90
2019-02-03T21:41:28.976Z,4.80
2019-02-03T21:44:38.090Z,5.10
2019-02-03T21:47:39.939Z,5.70
2019-02-03T21:50:45.161Z,4.80
2019-02-03T21:53:46.673Z,7.00
2019-02-03T21:56:39.051Z,5.27
2019-02-03T22:02:42.575Z,6.07
2019-02-03T22:05:43.712Z,5.80
2019-02-03T22:08:48.003Z,5.90
2019-02-03T22:11:49.415Z,5.10
2019-02-03T22:14:51.234Z,5.90
2019-02-03T22:17:53.343Z,5.50
2019-02-03T22:20:55.946Z,5.60
2019-02-03T22:23:46.093Z,5.33
2019-02-03T22:26:35.926Z,4.40
2019-02-03T22:29:38.084Z,5.33
2019-02-03T22:32:39.343Z,5.20
2019-02-03T22:35:40.709Z,5.47
2019-02-03T22:38:42.683Z,5.40
2019-02-03T22:41:46.958Z,5.23
2019-02-03T22:44:47.760Z,5.50
2019-02-03T22:47:48.016Z,6.03
2019-02-03T22:54:04.365Z,4.00
2019-02-03T22:57:05.473Z,5.17
2019-02-03T23:00:06.403Z,6.53
2019-02-03T23:03:07.924Z,6.57
2019-02-03T23:06:09.000Z,6.90
2019-02-03T23:09:16.315Z,6.27
2019-02-03T23:12:17.466Z,6.17
2019-02-03T23:15:18.688Z,5.80
2019-02-03T23:18:20.678Z,5.53
2019-02-03T23:21:20.751Z,6.17
2019-02-03T23:24:30.011Z,5.70
2019-02-03T23:27:31.762Z,4.87
2019-02-03T23:30:33.044Z,5.23
2019-02-03T23:33:34.914Z,5.43
2019-02-03T23:36:38.194Z,6.07
2019-02-03T23:39:46.014Z,4.83
2019-02-03T23:42:47.335Z,5.43
2019-02-03T23:45:48.972Z,5.27
2019-02-03T23:48:50.535Z,4.87
2019-02-03T23:51:51.676Z,5.90
2019-02-03T23:54:53.599Z,4.80
2019-02-03T23:57:54.565Z,4.60
